sensor_id;sensor_type;location;lat;lon;timestamp;temperature;humidity
27858;DHT22;16852;51.446;6.528;2022-11-23T00:00:24;9.40;99.90
27858;DHT22;16852;51.446;6.528;2022-11-23T00:02:25;9.40;99.90
27858;DHT22;16852;51.446;6.528;2022-11-23T00:04:25;9.40;99.90
27858;DHT22;16852;51.446;6.528;2022-11-23T00:06:26;9.40;99.90
27858;DHT22;16852;51.446;6.528;2022-11-23T00:08:27;9.40;99.90
27858;DHT22;16852;51.446;6.528;2022-11-23T00:10:27;9.40;99.90
27858;DHT22;16852;51.446;6.528;2022-11-23T00:12:28;9.40;99.90
27858;DHT22;16852;51.446;6.528;2022-11-23T00:14:28;9.40;99.90
27858;DHT22;16852;51.446;6.528;2022-11-23T00:16:29;9.40;99.90
27858;DHT22;16852;51.446;6.528;2022-11-23T00:18:30;9.40;99.90
27858;DHT22;16852;51.446;6.528;2022-11-23T00:20:31;9.40;99.90
27858;DHT22;16852;51.446;6.528;2022-11-23T00:22:32;9.40;99.90
27858;DHT22;16852;51.446;6.528;2022-11-23T00:24:33;9.40;99.90
27858;DHT22;16852;51.446;6.528;2022-11-23T00:26:34;9.50;99.90
27858;DHT22;16852;51.446;6.528;2022-11-23T00:28:34;9.50;99.90
27858;DHT22;16852;51.446;6.528;2022-11-23T00:30:38;9.40;99.90
27858;DHT22;16852;51.446;6.528;2022-11-23T00:32:38;9.50;99.90
27858;DHT22;16852;51.446;6.528;2022-11-23T00:34:39;9.50;99.90
27858;DHT22;16852;51.446;6.528;2022-11-23T00:36:39;9.40;99.90
27858;DHT22;16852;51.446;6.528;2022-11-23T00:38:41;9.40;99.90
27858;DHT22;16852;51.446;6.528;2022-11-23T00:40:42;9.50;99.90
27858;DHT22;16852;51.446;6.528;2022-11-23T00:42:43;9.40;99.90
27858;DHT22;16852;51.446;6.528;2022-11-23T00:44:43;9.40;99.90
27858;DHT22;16852;51.446;6.528;2022-11-23T00:46:44;9.40;99.90
27858;DHT22;16852;51.446;6.528;2022-11-23T00:48:47;9.40;99.90
27858;DHT22;16852;51.446;6.528;2022-11-23T00:50:48;9.50;99.90
27858;DHT22;16852;51.446;6.528;2022-11-23T00:52:49;9.40;99.90
27858;DHT22;16852;51.446;6.528;2022-11-23T00:54:49;9.50;99.90
27858;DHT22;16852;51.446;6.528;2022-11-23T00:56:50;9.50;99.90
27858;DHT22;16852;51.446;6.528;2022-11-23T00:58:52;9.50;99.90
27858;DHT22;16852;51.446;6.528;2022-11-23T01:01:01;9.50;99.90
27858;DHT22;16852;51.446;6.528;2022-11-23T01:03:02;9.50;99.90
27858;DHT22;16852;51.446;6.528;2022-11-23T01:05:03;9.50;99.90
27858;DHT22;16852;51.446;6.528;2022-11-23T01:07:03;9.50;99.90
27858;DHT22;16852;51.446;6.528;2022-11-23T01:09:13;9.50;99.90
27858;DHT22;16852;51.446;6.528;2022-11-23T01:11:13;9.50;99.90
27858;DHT22;16852;51.446;6.528;2022-11-23T01:13:14;9.50;99.90
27858;DHT22;16852;51.446;6.528;2022-11-23T01:15:14;9.50;99.90
27858;DHT22;16852;51.446;6.528;2022-11-23T01:17:15;9.50;99.90
27858;DHT22;16852;51.446;6.528;2022-11-23T01:19:18;9.50;99.90
27858;DHT22;16852;51.446;6.528;2022-11-23T01:21:18;9.50;99.90
27858;DHT22;16852;51.446;6.528;2022-11-23T01:23:19;9.50;99.90
27858;DHT22;16852;51.446;6.528;2022-11-23T01:25:19;9.50;99.90
27858;DHT22;16852;51.446;6.528;2022-11-23T01:27:20;9.50;99.90
27858;DHT22;16852;51.446;6.528;2022-11-23T01:29:22;9.50;99.90
27858;DHT22;16852;51.446;6.528;2022-11-23T01:31:24;9.50;99.90
27858;DHT22;16852;51.446;6.528;2022-11-23T01:33:25;9.50;99.90
27858;DHT22;16852;51.446;6.528;2022-11-23T01:35:25;9.50;99.90
27858;DHT22;16852;51.446;6.528;2022-11-23T01:37:27;9.50;99.90
27858;DHT22;16852;51.446;6.528;2022-11-23T01:39:27;9.50;99.90
27858;DHT22;16852;51.446;6.528;2022-11-23T01:41:30;9.50;99.90
27858;DHT22;16852;51.446;6.528;2022-11-23T01:43:31;9.50;99.90
27858;DHT22;16852;51.446;6.528;2022-11-23T01:45:40;9.50;99.90
27858;DHT22;16852;51.446;6.528;2022-11-23T01:47:41;9.50;99.90
27858;DHT22;16852;51.446;6.528;2022-11-23T01:49:44;9.50;99.90
27858;DHT22;16852;51.446;6.528;2022-11-23T01:51:48;9.60;99.90
27858;DHT22;16852;51.446;6.528;2022-11-23T01:53:53;9.50;99.90
27858;DHT22;16852;51.446;6.528;2022-11-23T01:55:59;9.60;99.90
27858;DHT22;16852;51.446;6.528;2022-11-23T01:58:01;9.50;99.90
27858;DHT22;16852;51.446;6.528;2022-11-23T02:00:03;9.50;99.90
27858;DHT22;16852;51.446;6.528;2022-11-23T02:02:04;9.60;99.90
27858;DHT22;16852;51.446;6.528;2022-11-23T02:04:06;9.60;99.90
27858;DHT22;16852;51.446;6.528;2022-11-23T02:06:13;9.60;99.90
27858;DHT22;16852;51.446;6.528;2022-11-23T02:08:15;9.60;99.90
27858;DHT22;16852;51.446;6.528;2022-11-23T02:10:17;9.60;99.90
27858;DHT22;16852;51.446;6.528;2022-11-23T02:12:18;9.60;99.90
27858;DHT22;16852;51.446;6.528;2022-11-23T02:14:18;9.60;99.90
27858;DHT22;16852;51.446;6.528;2022-11-23T02:16:19;9.60;99.90
27858;DHT22;16852;51.446;6.528;2022-11-23T02:18:25;9.60;99.90
27858;DHT22;16852;51.446;6.528;2022-11-23T02:20:27;9.70;99.90
27858;DHT22;16852;51.446;6.528;2022-11-23T02:22:37;9.60;99.90
27858;DHT22;16852;51.446;6.528;2022-11-23T02:24:42;9.60;99.90
27858;DHT22;16852;51.446;6.528;2022-11-23T02:26:45;9.70;99.90
27858;DHT22;16852;51.446;6.528;2022-11-23T02:30:54;9.70;99.90
27858;DHT22;16852;51.446;6.528;2022-11-23T02:32:55;9.70;99.90
27858;DHT22;16852;51.446;6.528;2022-11-23T02:34:55;9.70;99.90
27858;DHT22;16852;51.446;6.528;2022-11-23T02:36:56;9.70;99.90
27858;DHT22;16852;51.446;6.528;2022-11-23T02:38:58;9.70;99.90
27858;DHT22;16852;51.446;6.528;2022-11-23T02:41:00;9.70;99.90
27858;DHT22;16852;51.446;6.528;2022-11-23T02:43:01;9.70;99.90
27858;DHT22;16852;51.446;6.528;2022-11-23T02:45:11;9.70;99.90
27858;DHT22;16852;51.446;6.528;2022-11-23T02:47:15;9.70;99.90
27858;DHT22;16852;51.446;6.528;2022-11-23T02:49:15;9.70;99.90
27858;DHT22;16852;51.446;6.528;2022-11-23T02:51:16;9.70;99.90
27858;DHT22;16852;51.446;6.528;2022-11-23T02:53:17;9.80;99.90
27858;DHT22;16852;51.446;6.528;2022-11-23T02:55:17;9.70;99.90
27858;DHT22;16852;51.446;6.528;2022-11-23T02:57:18;9.70;99.90
27858;DHT22;16852;51.446;6.528;2022-11-23T02:59:19;9.80;99.90
27858;DHT22;16852;51.446;6.528;2022-11-23T03:01:20;9.80;99.90
27858;DHT22;16852;51.446;6.528;2022-11-23T03:03:20;9.80;99.90
27858;DHT22;16852;51.446;6.528;2022-11-23T03:05:21;9.80;99.90
27858;DHT22;16852;51.446;6.528;2022-11-23T03:07:21;9.80;99.90
27858;DHT22;16852;51.446;6.528;2022-11-23T03:09:22;9.70;99.90
27858;DHT22;16852;51.446;6.528;2022-11-23T03:11:25;9.80;99.90
27858;DHT22;16852;51.446;6.528;2022-11-23T03:13:25;9.80;99.90
27858;DHT22;16852;51.446;6.528;2022-11-23T03:15:26;9.80;99.90
27858;DHT22;16852;51.446;6.528;2022-11-23T03:17:27;9.80;99.90
27858;DHT22;16852;51.446;6.528;2022-11-23T03:19:28;9.80;99.90
27858;DHT22;16852;51.446;6.528;2022-11-23T03:21:29;9.80;99.90
27858;DHT22;16852;51.446;6.528;2022-11-23T03:23:29;9.80;99.90
27858;DHT22;16852;51.446;6.528;2022-11-23T03:25:30;9.80;99.90
27858;DHT22;16852;51.446;6.528;2022-11-23T03:27:31;9.70;99.90
27858;DHT22;16852;51.446;6.528;2022-11-23T03:29:33;9.80;99.90
27858;DHT22;16852;51.446;6.528;2022-11-23T03:31:33;9.80;99.90
27858;DHT22;16852;51.446;6.528;2022-11-23T03:33:34;9.70;99.90
27858;DHT22;16852;51.446;6.528;2022-11-23T03:35:35;9.70;99.90
27858;DHT22;16852;51.446;6.528;2022-11-23T03:37:35;9.70;99.90
27858;DHT22;16852;51.446;6.528;2022-11-23T03:39:36;9.70;99.90
27858;DHT22;16852;51.446;6.528;2022-11-23T03:41:36;9.70;99.90
27858;DHT22;16852;51.446;6.528;2022-11-23T03:43:37;9.80;99.90
27858;DHT22;16852;51.446;6.528;2022-11-23T03:45:37;9.80;99.90
27858;DHT22;16852;51.446;6.528;2022-11-23T03:47:38;9.70;99.90
27858;DHT22;16852;51.446;6.528;2022-11-23T03:49:39;9.70;99.90
27858;DHT22;16852;51.446;6.528;2022-11-23T03:51:39;9.70;99.90
27858;DHT22;16852;51.446;6.528;2022-11-23T03:53:40;9.70;99.90
27858;DHT22;16852;51.446;6.528;2022-11-23T03:55:40;9.70;99.90
27858;DHT22;16852;51.446;6.528;2022-11-23T03:57:41;9.70;99.90
27858;DHT22;16852;51.446;6.528;2022-11-23T03:59:42;9.70;99.90
27858;DHT22;16852;51.446;6.528;2022-11-23T04:01:42;9.70;99.90
27858;DHT22;16852;51.446;6.528;2022-11-23T04:03:43;9.70;99.90
27858;DHT22;16852;51.446;6.528;2022-11-23T04:05:43;9.70;99.90
27858;DHT22;16852;51.446;6.528;2022-11-23T04:07:45;9.70;99.90
27858;DHT22;16852;51.446;6.528;2022-11-23T04:09:46;9.70;99.90
27858;DHT22;16852;51.446;6.528;2022-11-23T04:11:47;9.70;99.90
27858;DHT22;16852;51.446;6.528;2022-11-23T04:13:48;9.70;99.90
27858;DHT22;16852;51.446;6.528;2022-11-23T04:15:48;9.70;99.90
27858;DHT22;16852;51.446;6.528;2022-11-23T04:17:49;9.70;99.90
27858;DHT22;16852;51.446;6.528;2022-11-23T04:19:49;9.70;99.90
27858;DHT22;16852;51.446;6.528;2022-11-23T04:21:50;9.60;99.90
27858;DHT22;16852;51.446;6.528;2022-11-23T04:23:50;9.70;99.90
27858;DHT22;16852;51.446;6.528;2022-11-23T04:25:51;9.70;99.90
27858;DHT22;16852;51.446;6.528;2022-11-23T04:27:52;9.70;99.90
27858;DHT22;16852;51.446;6.528;2022-11-23T04:29:52;9.70;99.90
27858;DHT22;16852;51.446;6.528;2022-11-23T04:31:53;9.70;99.90
27858;DHT22;16852;51.446;6.528;2022-11-23T04:33:54;9.70;99.90
27858;DHT22;16852;51.446;6.528;2022-11-23T04:35:56;9.70;99.90
27858;DHT22;16852;51.446;6.528;2022-11-23T04:37:56;9.70;99.90
27858;DHT22;16852;51.446;6.528;2022-11-23T04:39:57;9.70;99.90
27858;DHT22;16852;51.446;6.528;2022-11-23T04:41:58;9.70;99.90
27858;DHT22;16852;51.446;6.528;2022-11-23T04:43:58;9.70;99.90
27858;DHT22;16852;51.446;6.528;2022-11-23T04:45:59;9.70;99.90
27858;DHT22;16852;51.446;6.528;2022-11-23T04:47:59;9.80;99.90
27858;DHT22;16852;51.446;6.528;2022-11-23T04:50:00;9.80;99.90
27858;DHT22;16852;51.446;6.528;2022-11-23T04:52:01;9.80;99.90
27858;DHT22;16852;51.446;6.528;2022-11-23T04:54:01;9.80;99.90
27858;DHT22;16852;51.446;6.528;2022-11-23T04:56:02;9.80;99.90
27858;DHT22;16852;51.446;6.528;2022-11-23T04:58:03;9.80;99.90
27858;DHT22;16852;51.446;6.528;2022-11-23T05:00:04;9.80;99.90
27858;DHT22;16852;51.446;6.528;2022-11-23T05:02:04;9.70;99.90
27858;DHT22;16852;51.446;6.528;2022-11-23T05:04:05;9.70;99.90
27858;DHT22;16852;51.446;6.528;2022-11-23T05:06:06;9.80;99.90
27858;DHT22;16852;51.446;6.528;2022-11-23T05:08:07;9.70;99.90
27858;DHT22;16852;51.446;6.528;2022-11-23T05:10:08;9.70;99.90
27858;DHT22;16852;51.446;6.528;2022-11-23T05:12:09;9.70;99.90
27858;DHT22;16852;51.446;6.528;2022-11-23T05:14:09;9.70;99.90
27858;DHT22;16852;51.446;6.528;2022-11-23T05:16:10;9.70;99.90
27858;DHT22;16852;51.446;6.528;2022-11-23T05:18:10;9.70;99.90
27858;DHT22;16852;51.446;6.528;2022-11-23T05:20:11;9.70;99.90
27858;DHT22;16852;51.446;6.528;2022-11-23T05:22:12;9.70;99.90
27858;DHT22;16852;51.446;6.528;2022-11-23T05:24:12;9.70;99.90
27858;DHT22;16852;51.446;6.528;2022-11-23T05:26:13;9.70;99.90
27858;DHT22;16852;51.446;6.528;2022-11-23T05:28:16;9.70;99.90
27858;DHT22;16852;51.446;6.528;2022-11-23T05:30:18;9.80;99.90
27858;DHT22;16852;51.446;6.528;2022-11-23T05:32:19;9.80;99.90
27858;DHT22;16852;51.446;6.528;2022-11-23T05:34:19;9.80;99.90
27858;DHT22;16852;51.446;6.528;2022-11-23T05:36:20;9.80;99.90
27858;DHT22;16852;51.446;6.528;2022-11-23T05:38:20;9.80;99.90
27858;DHT22;16852;51.446;6.528;2022-11-23T05:40:21;9.80;99.90
27858;DHT22;16852;51.446;6.528;2022-11-23T05:42:22;9.80;99.90
27858;DHT22;16852;51.446;6.528;2022-11-23T05:44:22;9.70;99.90
27858;DHT22;16852;51.446;6.528;2022-11-23T05:46:23;9.70;99.90
27858;DHT22;16852;51.446;6.528;2022-11-23T05:48:23;9.70;99.90
27858;DHT22;16852;51.446;6.528;2022-11-23T05:50:25;9.70;99.90
27858;DHT22;16852;51.446;6.528;2022-11-23T05:52:26;9.70;99.90
27858;DHT22;16852;51.446;6.528;2022-11-23T05:54:27;9.70;99.90
27858;DHT22;16852;51.446;6.528;2022-11-23T05:56:28;9.70;99.90
27858;DHT22;16852;51.446;6.528;2022-11-23T05:58:28;9.70;99.90
27858;DHT22;16852;51.446;6.528;2022-11-23T06:00:29;9.70;99.90
27858;DHT22;16852;51.446;6.528;2022-11-23T06:02:29;9.70;99.90
27858;DHT22;16852;51.446;6.528;2022-11-23T06:04:30;9.70;99.90
27858;DHT22;16852;51.446;6.528;2022-11-23T06:06:30;9.70;99.90
27858;DHT22;16852;51.446;6.528;2022-11-23T06:08:31;9.70;99.90
27858;DHT22;16852;51.446;6.528;2022-11-23T06:10:32;9.70;99.90
27858;DHT22;16852;51.446;6.528;2022-11-23T06:12:32;9.70;99.90
27858;DHT22;16852;51.446;6.528;2022-11-23T06:14:33;9.70;99.90
27858;DHT22;16852;51.446;6.528;2022-11-23T06:16:33;9.70;99.90
27858;DHT22;16852;51.446;6.528;2022-11-23T06:18:34;9.70;99.90
27858;DHT22;16852;51.446;6.528;2022-11-23T06:20:35;9.70;99.90
27858;DHT22;16852;51.446;6.528;2022-11-23T06:22:35;9.70;99.90
27858;DHT22;16852;51.446;6.528;2022-11-23T06:24:36;9.70;99.90
27858;DHT22;16852;51.446;6.528;2022-11-23T06:26:36;9.70;99.90
27858;DHT22;16852;51.446;6.528;2022-11-23T06:28:37;9.80;99.90
27858;DHT22;16852;51.446;6.528;2022-11-23T06:30:38;9.80;99.90
27858;DHT22;16852;51.446;6.528;2022-11-23T06:32:38;9.70;99.90
27858;DHT22;16852;51.446;6.528;2022-11-23T06:34:39;9.70;99.90
27858;DHT22;16852;51.446;6.528;2022-11-23T06:36:39;9.70;99.90
27858;DHT22;16852;51.446;6.528;2022-11-23T06:38:40;9.70;99.90
27858;DHT22;16852;51.446;6.528;2022-11-23T06:40:42;9.70;99.90
27858;DHT22;16852;51.446;6.528;2022-11-23T06:42:42;9.70;99.90
27858;DHT22;16852;51.446;6.528;2022-11-23T06:44:43;9.70;99.90
27858;DHT22;16852;51.446;6.528;2022-11-23T06:46:43;9.80;99.90
27858;DHT22;16852;51.446;6.528;2022-11-23T06:48:45;9.70;99.90
27858;DHT22;16852;51.446;6.528;2022-11-23T06:50:46;9.70;99.90
27858;DHT22;16852;51.446;6.528;2022-11-23T06:52:46;9.70;99.90
27858;DHT22;16852;51.446;6.528;2022-11-23T06:54:47;9.80;99.90
27858;DHT22;16852;51.446;6.528;2022-11-23T06:56:48;9.70;99.90
27858;DHT22;16852;51.446;6.528;2022-11-23T06:58:48;9.70;99.90
27858;DHT22;16852;51.446;6.528;2022-11-23T07:00:49;9.70;99.90
27858;DHT22;16852;51.446;6.528;2022-11-23T07:02:53;9.70;99.90
27858;DHT22;16852;51.446;6.528;2022-11-23T07:04:54;9.70;99.90
27858;DHT22;16852;51.446;6.528;2022-11-23T07:06:55;9.70;99.90
27858;DHT22;16852;51.446;6.528;2022-11-23T07:08:55;9.70;99.90
27858;DHT22;16852;51.446;6.528;2022-11-23T07:11:02;9.80;99.90
27858;DHT22;16852;51.446;6.528;2022-11-23T07:13:05;9.80;99.90
27858;DHT22;16852;51.446;6.528;2022-11-23T07:15:07;9.80;99.90
27858;DHT22;16852;51.446;6.528;2022-11-23T07:17:08;9.70;99.90
27858;DHT22;16852;51.446;6.528;2022-11-23T07:19:08;9.70;99.90
27858;DHT22;16852;51.446;6.528;2022-11-23T07:21:09;9.70;99.90
27858;DHT22;16852;51.446;6.528;2022-11-23T07:23:10;9.70;99.90
27858;DHT22;16852;51.446;6.528;2022-11-23T07:25:11;9.70;99.90
27858;DHT22;16852;51.446;6.528;2022-11-23T07:27:16;9.80;99.90
27858;DHT22;16852;51.446;6.528;2022-11-23T07:29:17;9.70;99.90
27858;DHT22;16852;51.446;6.528;2022-11-23T07:31:17;9.70;99.90
27858;DHT22;16852;51.446;6.528;2022-11-23T07:33:18;9.70;99.90
27858;DHT22;16852;51.446;6.528;2022-11-23T07:35:19;9.70;99.90
27858;DHT22;16852;51.446;6.528;2022-11-23T07:37:20;9.70;99.90
27858;DHT22;16852;51.446;6.528;2022-11-23T07:39:20;9.70;99.90
27858;DHT22;16852;51.446;6.528;2022-11-23T07:41:21;9.70;99.90
27858;DHT22;16852;51.446;6.528;2022-11-23T07:43:22;9.70;99.90
27858;DHT22;16852;51.446;6.528;2022-11-23T07:45:22;9.70;99.90
27858;DHT22;16852;51.446;6.528;2022-11-23T07:47:23;9.70;99.90
27858;DHT22;16852;51.446;6.528;2022-11-23T07:49:23;9.70;99.90
27858;DHT22;16852;51.446;6.528;2022-11-23T07:51:24;9.70;99.90
27858;DHT22;16852;51.446;6.528;2022-11-23T07:53:24;9.70;99.90
27858;DHT22;16852;51.446;6.528;2022-11-23T07:55:25;9.70;99.90
27858;DHT22;16852;51.446;6.528;2022-11-23T07:57:26;9.70;99.90
27858;DHT22;16852;51.446;6.528;2022-11-23T07:59:27;9.70;99.90
27858;DHT22;16852;51.446;6.528;2022-11-23T08:01:27;9.70;99.90
27858;DHT22;16852;51.446;6.528;2022-11-23T08:03:28;9.70;99.90
27858;DHT22;16852;51.446;6.528;2022-11-23T08:05:31;9.70;99.90
27858;DHT22;16852;51.446;6.528;2022-11-23T08:07:31;9.70;99.90
27858;DHT22;16852;51.446;6.528;2022-11-23T08:09:32;9.70;99.90
27858;DHT22;16852;51.446;6.528;2022-11-23T08:11:33;9.70;99.90
27858;DHT22;16852;51.446;6.528;2022-11-23T08:13:34;9.70;99.90
27858;DHT22;16852;51.446;6.528;2022-11-23T08:15:35;9.70;99.90
27858;DHT22;16852;51.446;6.528;2022-11-23T08:17:35;9.70;99.90
27858;DHT22;16852;51.446;6.528;2022-11-23T08:19:36;9.70;99.90
27858;DHT22;16852;51.446;6.528;2022-11-23T08:21:36;9.70;99.90
27858;DHT22;16852;51.446;6.528;2022-11-23T08:23:37;9.70;99.90
27858;DHT22;16852;51.446;6.528;2022-11-23T08:25:37;9.70;99.90
27858;DHT22;16852;51.446;6.528;2022-11-23T08:27:38;9.70;99.90
27858;DHT22;16852;51.446;6.528;2022-11-23T08:29:38;9.70;99.90
27858;DHT22;16852;51.446;6.528;2022-11-23T08:31:39;9.80;99.90
27858;DHT22;16852;51.446;6.528;2022-11-23T08:33:40;9.70;99.90
27858;DHT22;16852;51.446;6.528;2022-11-23T08:35:41;9.80;99.90
27858;DHT22;16852;51.446;6.528;2022-11-23T08:37:42;9.80;99.90
27858;DHT22;16852;51.446;6.528;2022-11-23T08:39:43;9.80;99.90
27858;DHT22;16852;51.446;6.528;2022-11-23T08:41:43;9.90;99.90
27858;DHT22;16852;51.446;6.528;2022-11-23T08:43:44;9.90;99.90
27858;DHT22;16852;51.446;6.528;2022-11-23T08:45:44;10.00;99.90
27858;DHT22;16852;51.446;6.528;2022-11-23T08:47:45;10.20;99.90
27858;DHT22;16852;51.446;6.528;2022-11-23T08:49:46;10.40;99.90
27858;DHT22;16852;51.446;6.528;2022-11-23T08:51:46;10.60;99.90
27858;DHT22;16852;51.446;6.528;2022-11-23T08:53:50;10.80;99.90
27858;DHT22;16852;51.446;6.528;2022-11-23T08:55:51;11.10;99.90
27858;DHT22;16852;51.446;6.528;2022-11-23T08:57:56;11.30;99.90
27858;DHT22;16852;51.446;6.528;2022-11-23T08:59:57;11.50;99.90
27858;DHT22;16852;51.446;6.528;2022-11-23T09:01:57;11.70;99.90
27858;DHT22;16852;51.446;6.528;2022-11-23T09:03:58;11.80;99.90
27858;DHT22;16852;51.446;6.528;2022-11-23T09:05:59;12.00;99.90
27858;DHT22;16852;51.446;6.528;2022-11-23T09:08:00;12.00;99.90
27858;DHT22;16852;51.446;6.528;2022-11-23T09:10:01;12.20;99.90
27858;DHT22;16852;51.446;6.528;2022-11-23T09:12:01;12.30;99.90
27858;DHT22;16852;51.446;6.528;2022-11-23T09:14:02;12.30;99.90
27858;DHT22;16852;51.446;6.528;2022-11-23T09:16:04;12.50;99.90
27858;DHT22;16852;51.446;6.528;2022-11-23T09:18:05;12.60;99.90
27858;DHT22;16852;51.446;6.528;2022-11-23T09:20:06;12.50;99.90
27858;DHT22;16852;51.446;6.528;2022-11-23T09:22:07;12.60;99.90
27858;DHT22;16852;51.446;6.528;2022-11-23T09:24:10;12.60;99.90
27858;DHT22;16852;51.446;6.528;2022-11-23T09:26:11;12.50;99.90
27858;DHT22;16852;51.446;6.528;2022-11-23T09:28:12;12.50;99.90
27858;DHT22;16852;51.446;6.528;2022-11-23T09:30:14;12.50;99.90
27858;DHT22;16852;51.446;6.528;2022-11-23T09:32:15;12.40;99.90
27858;DHT22;16852;51.446;6.528;2022-11-23T09:34:16;12.40;99.90
27858;DHT22;16852;51.446;6.528;2022-11-23T09:36:16;12.40;99.90
27858;DHT22;16852;51.446;6.528;2022-11-23T09:38:17;12.20;99.90
27858;DHT22;16852;51.446;6.528;2022-11-23T09:40:17;12.20;99.90
27858;DHT22;16852;51.446;6.528;2022-11-23T09:42:35;12.10;99.90
27858;DHT22;16852;51.446;6.528;2022-11-23T09:49:12;12.10;99.90
27858;DHT22;16852;51.446;6.528;2022-11-23T09:51:17;12.10;99.90
27858;DHT22;16852;51.446;6.528;2022-11-23T09:53:23;12.10;99.90
27858;DHT22;16852;51.446;6.528;2022-11-23T09:55:37;12.10;99.90
27858;DHT22;16852;51.446;6.528;2022-11-23T09:57:41;12.10;99.90
27858;DHT22;16852;51.446;6.528;2022-11-23T09:59:48;12.00;99.90
27858;DHT22;16852;51.446;6.528;2022-11-23T10:01:50;12.10;99.90
27858;DHT22;16852;51.446;6.528;2022-11-23T10:03:50;12.10;99.90
27858;DHT22;16852;51.446;6.528;2022-11-23T10:06:27;12.10;99.90
27858;DHT22;16852;51.446;6.528;2022-11-23T10:08:35;12.10;99.90
27858;DHT22;16852;51.446;6.528;2022-11-23T10:15:29;12.10;99.90
27858;DHT22;16852;51.446;6.528;2022-11-23T10:17:40;12.10;99.90
27858;DHT22;16852;51.446;6.528;2022-11-23T10:19:53;12.00;99.90
27858;DHT22;16852;51.446;6.528;2022-11-23T10:24:18;11.90;99.90
27858;DHT22;16852;51.446;6.528;2022-11-23T10:26:35;11.90;99.90
27858;DHT22;16852;51.446;6.528;2022-11-23T10:28:37;11.90;99.90
27858;DHT22;16852;51.446;6.528;2022-11-23T10:30:37;11.80;99.90
27858;DHT22;16852;51.446;6.528;2022-11-23T10:32:45;11.80;99.90
27858;DHT22;16852;51.446;6.528;2022-11-23T10:37:10;11.80;99.90
27858;DHT22;16852;51.446;6.528;2022-11-23T10:39:22;11.80;99.90
27858;DHT22;16852;51.446;6.528;2022-11-23T10:41:24;11.80;99.90
27858;DHT22;16852;51.446;6.528;2022-11-23T10:44:11;11.70;99.90
27858;DHT22;16852;51.446;6.528;2022-11-23T10:45:50;11.70;99.90
27858;DHT22;16852;51.446;6.528;2022-11-23T10:47:53;11.60;99.90
27858;DHT22;16852;51.446;6.528;2022-11-23T10:49:58;11.60;99.90
27858;DHT22;16852;51.446;6.528;2022-11-23T10:52:01;11.60;99.90
27858;DHT22;16852;51.446;6.528;2022-11-23T10:54:26;11.50;99.90
27858;DHT22;16852;51.446;6.528;2022-11-23T10:56:28;11.50;99.90
27858;DHT22;16852;51.446;6.528;2022-11-23T10:58:31;11.50;99.90
27858;DHT22;16852;51.446;6.528;2022-11-23T11:00:35;11.50;99.90
27858;DHT22;16852;51.446;6.528;2022-11-23T11:02:39;11.60;99.90
27858;DHT22;16852;51.446;6.528;2022-11-23T11:04:42;11.60;99.90
27858;DHT22;16852;51.446;6.528;2022-11-23T11:06:43;11.60;99.90
27858;DHT22;16852;51.446;6.528;2022-11-23T11:09:00;11.60;99.90
27858;DHT22;16852;51.446;6.528;2022-11-23T11:11:20;11.50;99.90
27858;DHT22;16852;51.446;6.528;2022-11-23T11:13:41;11.50;99.90
27858;DHT22;16852;51.446;6.528;2022-11-23T11:15:53;11.50;99.90
27858;DHT22;16852;51.446;6.528;2022-11-23T11:17:58;11.50;99.90
27858;DHT22;16852;51.446;6.528;2022-11-23T11:20:00;11.60;99.90
27858;DHT22;16852;51.446;6.528;2022-11-23T11:22:29;11.50;99.90
27858;DHT22;16852;51.446;6.528;2022-11-23T11:24:45;11.50;99.90
27858;DHT22;16852;51.446;6.528;2022-11-23T11:26:49;11.50;99.90
27858;DHT22;16852;51.446;6.528;2022-11-23T11:28:56;11.50;99.90
27858;DHT22;16852;51.446;6.528;2022-11-23T11:33:27;11.50;99.90
27858;DHT22;16852;51.446;6.528;2022-11-23T11:35:35;11.50;99.90
27858;DHT22;16852;51.446;6.528;2022-11-23T11:37:43;11.50;99.90
27858;DHT22;16852;51.446;6.528;2022-11-23T11:39:51;11.50;99.90
27858;DHT22;16852;51.446;6.528;2022-11-23T11:41:55;11.50;99.90
27858;DHT22;16852;51.446;6.528;2022-11-23T11:44:03;11.60;99.90
27858;DHT22;16852;51.446;6.528;2022-11-23T11:46:22;11.60;99.90
27858;DHT22;16852;51.446;6.528;2022-11-23T11:48:48;11.60;99.90
27858;DHT22;16852;51.446;6.528;2022-11-23T11:53:28;11.60;99.90
27858;DHT22;16852;51.446;6.528;2022-11-23T11:55:47;11.60;99.90
27858;DHT22;16852;51.446;6.528;2022-11-23T11:58:08;11.60;99.90
27858;DHT22;16852;51.446;6.528;2022-11-23T12:00:13;11.60;99.90
27858;DHT22;16852;51.446;6.528;2022-11-23T12:02:34;11.60;99.90
27858;DHT22;16852;51.446;6.528;2022-11-23T12:07:20;11.50;99.90
27858;DHT22;16852;51.446;6.528;2022-11-23T12:09:29;11.50;99.90
27858;DHT22;16852;51.446;6.528;2022-11-23T12:11:31;11.50;99.90
27858;DHT22;16852;51.446;6.528;2022-11-23T12:13:33;11.50;99.90
27858;DHT22;16852;51.446;6.528;2022-11-23T12:15:46;11.40;99.90
27858;DHT22;16852;51.446;6.528;2022-11-23T12:23:03;11.40;99.90
27858;DHT22;16852;51.446;6.528;2022-11-23T12:31:46;11.30;99.90
27858;DHT22;16852;51.446;6.528;2022-11-23T12:46:07;11.30;99.90
27858;DHT22;16852;51.446;6.528;2022-11-23T12:52:57;11.20;99.90
27858;DHT22;16852;51.446;6.528;2022-11-23T12:55:32;11.20;99.90
27858;DHT22;16852;51.446;6.528;2022-11-23T13:00:01;11.10;99.90
27858;DHT22;16852;51.446;6.528;2022-11-23T13:02:48;11.20;99.90
27858;DHT22;16852;51.446;6.528;2022-11-23T13:05:00;11.20;99.90
27858;DHT22;16852;51.446;6.528;2022-11-23T13:12:05;11.20;99.90
27858;DHT22;16852;51.446;6.528;2022-11-23T13:23:07;11.10;99.90
27858;DHT22;16852;51.446;6.528;2022-11-23T13:25:26;11.20;99.90
27858;DHT22;16852;51.446;6.528;2022-11-23T13:27:39;11.10;99.90
27858;DHT22;16852;51.446;6.528;2022-11-23T13:34:44;11.00;99.90
27858;DHT22;16852;51.446;6.528;2022-11-23T13:36:58;11.00;99.90
27858;DHT22;16852;51.446;6.528;2022-11-23T13:39:02;11.00;99.90
27858;DHT22;16852;51.446;6.528;2022-11-23T13:43:35;11.00;99.90
27858;DHT22;16852;51.446;6.528;2022-11-23T13:45:36;10.90;99.90
27858;DHT22;16852;51.446;6.528;2022-11-23T13:47:37;10.90;99.90
27858;DHT22;16852;51.446;6.528;2022-11-23T13:49:43;10.90;99.90
27858;DHT22;16852;51.446;6.528;2022-11-23T13:52:04;10.90;99.90
27858;DHT22;16852;51.446;6.528;2022-11-23T13:54:21;10.80;99.90
27858;DHT22;16852;51.446;6.528;2022-11-23T13:58:36;10.80;99.90
27858;DHT22;16852;51.446;6.528;2022-11-23T14:00:45;10.80;99.90
27858;DHT22;16852;51.446;6.528;2022-11-23T14:02:46;10.80;99.90
27858;DHT22;16852;51.446;6.528;2022-11-23T14:04:47;10.80;99.90
27858;DHT22;16852;51.446;6.528;2022-11-23T14:07:00;10.80;99.90
27858;DHT22;16852;51.446;6.528;2022-11-23T14:11:13;10.80;99.90
27858;DHT22;16852;51.446;6.528;2022-11-23T14:13:19;10.70;99.90
27858;DHT22;16852;51.446;6.528;2022-11-23T14:15:25;10.70;99.90
27858;DHT22;16852;51.446;6.528;2022-11-23T14:18:02;10.70;99.90
27858;DHT22;16852;51.446;6.528;2022-11-23T14:22:52;10.70;99.90
27858;DHT22;16852;51.446;6.528;2022-11-23T14:25:17;10.70;99.90
27858;DHT22;16852;51.446;6.528;2022-11-23T14:27:45;10.70;99.90
27858;DHT22;16852;51.446;6.528;2022-11-23T14:36:38;10.70;99.90